Time;durP1;ratioP1;P1;durP2;ratioP2;P2;SDS_P1;SDS_P2;PMS_P1;PMS_P2;Temp;Humidity;BMP_temperature;BMP_pressure;BME280_temperature;BME280_humidity;BME280_pressure;Samples;Min_cycle;Max_cycle;Signal;HPM_P1;HPM_P2
2023/12/31 00:04:21;;;;;;;2.57;1.10;;;;;;;;;;20950645;28;20238;-82
2023/12/31 00:14:23;;;;;;;1.77;1.13;;;;;;;;;;20965247;28;20280;-83
2023/12/31 00:24:24;;;;;;;1.37;0.80;;;;;;;;;;20962125;28;20262;-81
2023/12/31 00:34:26;;;;;;;1.77;1.30;;;;;;;;;;20972898;28;20221;-81
2023/12/31 00:44:28;;;;;;;1.73;1.00;;;;;;;;;;20947502;28;20274;-83
2023/12/31 00:54:31;;;;;;;1.87;1.10;;;;;;;;;;20939414;28;20699;-82
2023/12/31 01:04:32;;;;;;;1.27;0.90;;;;;;;;;;20968030;28;20694;-84
2023/12/31 01:14:37;;;;;;;2.10;1.00;;;;;;;;;;20908038;28;20283;-80
2023/12/31 01:24:40;;;;;;;1.70;0.90;;;;;;;;;;20954762;28;20382;-81
2023/12/31 01:34:41;;;;;;;0.97;0.70;;;;;;;;;;20970274;28;20214;-81
2023/12/31 01:44:43;;;;;;;1.67;1.07;;;;;;;;;;20913189;28;20577;-82
2023/12/31 01:54:45;;;;;;;2.57;0.80;;;;;;;;;;20963595;28;20217;-81
2023/12/31 02:04:47;;;;;;;1.17;0.60;;;;;;;;;;20971424;28;20768;-80
2023/12/31 02:14:50;;;;;;;1.43;0.80;;;;;;;;;;20951191;28;20691;-80
2023/12/31 02:24:54;;;;;;;2.03;0.57;;;;;;;;;;20958965;28;20230;-81
2023/12/31 02:34:56;;;;;;;1.07;0.60;;;;;;;;;;20959830;28;20225;-82
2023/12/31 02:44:58;;;;;;;0.80;0.50;;;;;;;;;;20973093;28;20242;-79
2023/12/31 02:54:59;;;;;;;0.97;0.50;;;;;;;;;;20980209;28;20225;-82
2023/12/31 03:05:01;;;;;;;1.53;0.63;;;;;;;;;;20957469;28;20229;-82
2023/12/31 03:15:03;;;;;;;0.87;0.50;;;;;;;;;;20912672;28;20225;-82
2023/12/31 03:25:05;;;;;;;1.10;0.63;;;;;;;;;;20977159;28;20715;-83
2023/12/31 03:35:07;;;;;;;1.53;0.70;;;;;;;;;;20953038;28;20213;-81
2023/12/31 03:45:09;;;;;;;1.27;0.63;;;;;;;;;;20952727;28;20209;-81
2023/12/31 03:55:10;;;;;;;1.20;0.70;;;;;;;;;;20967013;28;20640;-81
2023/12/31 04:05:12;;;;;;;1.20;0.70;;;;;;;;;;20990077;28;20638;-81
2023/12/31 04:15:14;;;;;;;2.27;0.60;;;;;;;;;;20942874;28;20648;-81
2023/12/31 04:25:16;;;;;;;1.30;0.63;;;;;;;;;;20975659;28;20580;-81
2023/12/31 04:35:18;;;;;;;1.40;0.70;;;;;;;;;;20960562;28;20229;-81
2023/12/31 04:45:19;;;;;;;2.03;0.67;;;;;;;;;;20970389;28;20682;-81
2023/12/31 04:55:22;;;;;;;0.63;0.40;;;;;;;;;;20997706;28;20292;-79
2023/12/31 05:05:23;;;;;;;1.10;0.60;;;;;;;;;;20943397;28;20275;-81
2023/12/31 05:15:25;;;;;;;0.90;0.50;;;;;;;;;;21012310;28;20694;-80
2023/12/31 05:25:27;;;;;;;0.70;0.60;;;;;;;;;;20961749;28;20220;-83
2023/12/31 05:35:29;;;;;;;1.83;0.60;;;;;;;;;;20996434;28;20266;-80
2023/12/31 05:45:30;;;;;;;1.47;0.60;;;;;;;;;;20942465;28;20201;-80
2023/12/31 05:55:32;;;;;;;1.70;0.80;;;;;;;;;;20969351;28;20278;-80
2023/12/31 06:05:34;;;;;;;1.30;0.70;;;;;;;;;;20946855;28;20225;-80
2023/12/31 06:15:36;;;;;;;1.10;0.70;;;;;;;;;;20983461;28;20266;-80
2023/12/31 06:25:37;;;;;;;1.43;0.60;;;;;;;;;;20971933;28;20259;-79
2023/12/31 06:35:39;;;;;;;0.87;0.57;;;;;;;;;;20940086;28;20225;-80
2023/12/31 06:45:41;;;;;;;1.07;0.53;;;;;;;;;;20959305;28;20217;-80
2023/12/31 06:55:42;;;;;;;1.03;0.63;;;;;;;;;;21013499;28;20254;-82
2023/12/31 07:05:44;;;;;;;1.70;1.00;;;;;;;;;;20963514;28;20221;-80
2023/12/31 07:15:46;;;;;;;0.67;0.57;;;;;;;;;;20945471;28;20220;-80
2023/12/31 07:25:47;;;;;;;1.00;0.70;;;;;;;;;;20939639;28;20213;-80
2023/12/31 07:35:49;;;;;;;1.83;0.73;;;;;;;;;;20967408;28;20226;-80
2023/12/31 07:45:51;;;;;;;0.77;0.57;;;;;;;;;;20988388;28;20209;-80
2023/12/31 07:55:53;;;;;;;2.47;0.53;;;;;;;;;;20948196;28;20634;-82
2023/12/31 08:05:55;;;;;;;1.73;0.80;;;;;;;;;;20975083;28;20238;-81
2023/12/31 08:15:57;;;;;;;1.13;0.83;;;;;;;;;;20985708;28;20225;-80
2023/12/31 08:25:59;;;;;;;0.87;0.63;;;;;;;;;;20972716;28;20198;-81
2023/12/31 08:36:01;;;;;;;1.07;0.43;;;;;;;;;;20983246;28;20225;-83
2023/12/31 08:46:03;;;;;;;1.10;0.60;;;;;;;;;;20966359;28;20272;-80
2023/12/31 08:56:05;;;;;;;1.33;0.70;;;;;;;;;;20983893;28;20209;-80
2023/12/31 09:06:06;;;;;;;1.57;0.83;;;;;;;;;;20957703;28;20335;-80
2023/12/31 09:16:08;;;;;;;1.20;0.77;;;;;;;;;;20978258;28;20240;-81
2023/12/31 09:26:10;;;;;;;1.33;0.73;;;;;;;;;;20970003;28;20229;-80
2023/12/31 09:36:12;;;;;;;1.43;0.77;;;;;;;;;;20966388;28;20230;-81
2023/12/31 09:46:14;;;;;;;2.07;0.80;;;;;;;;;;21010906;28;20260;-81
2023/12/31 09:56:17;;;;;;;1.80;1.00;;;7.20;99.90;;;;;;20973291;28;20270;-81
2023/12/31 10:06:19;;;;;;;2.40;1.17;;;;;;;;;;20963869;28;20248;-81
2023/12/31 10:16:22;;;;;;;1.97;0.80;;;;;;;;;;20971446;28;20225;-79
2023/12/31 10:26:24;;;;;;;0.93;0.70;;;;;;;;;;20968042;28;20646;-80
2023/12/31 10:36:26;;;;;;;1.13;0.60;;;;;;;;;;20955251;28;20267;-81
2023/12/31 10:46:30;;;;;;;1.53;0.83;;;7.00;99.90;;;;;;20957926;28;20198;-80
2023/12/31 10:56:32;;;;;;;1.93;0.80;;;;;;;;;;20950421;28;20245;-81
2023/12/31 11:06:34;;;;;;;0.97;0.70;;;;;;;;;;20964933;28;20208;-82
2023/12/31 11:16:55;;;;;;;1.10;0.70;;;;;;;;;;20954183;28;20244;-81
2023/12/31 11:27:15;;;;;;;0.40;0.30;;;;;;;;;;20977213;28;20268;-81
2023/12/31 11:37:17;;;;;;;0.60;0.27;;;;;;;;;;20947499;28;20267;-82
2023/12/31 11:47:25;;;;;;;0.20;0.20;;;7.60;99.90;;;;;;20989028;28;20275;-81
2023/12/31 11:57:27;;;;;;;0.47;0.10;;;;;;;;;;20962285;28;20586;-82
2023/12/31 12:07:29;;;;;;;0.20;0.20;;;;;;;;;;20952484;28;20639;-81
2023/12/31 12:17:31;;;;;;;0.60;0.20;;;;;;;;;;20996858;28;20213;-82
2023/12/31 12:27:35;;;;;;;0.20;0.20;;;;;;;;;;20980941;28;20217;-82
2023/12/31 12:37:37;;;;;;;0.40;0.20;;;;;;;;;;20976503;28;20213;-81
2023/12/31 12:47:38;;;;;;;0.10;0.10;;;;;;;;;;20955973;28;20214;-81
2023/12/31 12:57:40;;;;;;;1.57;0.20;;;;;;;;;;21001974;28;20221;-81
2023/12/31 13:07:41;;;;;;;0.40;0.33;;;;;;;;;;20985511;28;20229;-81
2023/12/31 13:17:43;;;;;;;1.20;0.40;;;;;;;;;;20982544;28;20213;-82
2023/12/31 13:27:45;;;;;;;0.20;0.20;;;;;;;;;;20955164;28;20234;-81
2023/12/31 13:37:47;;;;;;;0.20;0.10;;;;;;;;;;20975341;28;20356;-81
2023/12/31 13:47:48;;;;;;;0.10;0.10;;;;;;;;;;20981621;28;20213;-81
2023/12/31 13:57:50;;;;;;;0.53;0.37;;;;;;;;;;20949976;28;20217;-80
2023/12/31 14:07:51;;;;;;;0.20;0.20;;;8.00;99.90;;;;;;20987396;28;20735;-81
2023/12/31 14:17:53;;;;;;;0.13;0.13;;;;;;;;;;20971786;28;20693;-81
2023/12/31 14:27:55;;;;;;;0.60;0.40;;;;;;;;;;20976266;28;20213;-81
2023/12/31 14:37:56;;;;;;;0.10;0.10;;;;;;;;;;20949038;28;20244;-81
2023/12/31 14:47:58;;;;;;;0.10;0.10;;;;;;;;;;20943830;28;20231;-83
2023/12/31 14:58:00;;;;;;;0.10;0.10;;;;;;;;;;20991381;28;20226;-81
2023/12/31 15:08:05;;;;;;;0.13;0.13;;;;;;;;;;20974084;28;20263;-83
2023/12/31 15:18:07;;;;;;;0.30;0.20;;;;;;;;;;20957524;28;20228;-82
2023/12/31 15:28:09;;;;;;;0.00;0.00;;;;;;;;;;21026491;28;20293;-81
2023/12/31 15:38:11;;;;;;;0.20;0.20;;;;;;;;;;20959297;28;20280;-80
2023/12/31 15:48:12;;;;;;;0.10;0.10;;;;;;;;;;20948446;28;20201;-82
2023/12/31 15:58:14;;;;;;;0.53;0.20;;;;;;;;;;20940170;28;20218;-80
2023/12/31 16:08:16;;;;;;;0.10;0.10;;;;;;;;;;20913954;28;20221;-81
2023/12/31 16:18:20;;;;;;;1.90;0.23;;;;;;;;;;20976017;28;20222;-81
2023/12/31 16:28:21;;;;;;;0.10;0.10;;;;;;;;;;20986124;28;20239;-80
2023/12/31 16:38:23;;;;;;;5.93;0.83;;;;;;;;;;20948822;28;20270;-80
2023/12/31 16:48:25;;;;;;;0.20;0.20;;;;;;;;;;20989338;28;20251;-80
2023/12/31 16:58:26;;;;;;;0.73;0.43;;;;;;;;;;20966832;28;20213;-81
2023/12/31 17:08:28;;;;;;;0.80;0.20;;;;;;;;;;20951985;28;20747;-80
2023/12/31 17:18:30;;;;;;;0.10;0.10;;;;;;;;;;21001795;28;20221;-80
2023/12/31 17:28:32;;;;;;;0.30;0.30;;;;;;;;;;20974040;28;20275;-80
2023/12/31 17:38:34;;;;;;;1.50;0.20;;;;;;;;;;20977326;28;20233;-81
2023/12/31 17:48:35;;;;;;;0.10;0.10;;;;;;;;;;20968084;28;20236;-81
2023/12/31 17:58:37;;;;;;;0.13;0.10;;;;;;;;;;20951145;28;20247;-82
2023/12/31 18:08:39;;;;;;;0.27;0.20;;;;;;;;;;20976623;28;20217;-80
2023/12/31 18:18:40;;;;;;;0.37;0.20;;;;;;;;;;20950876;28;20213;-80
2023/12/31 18:28:42;;;;;;;2.00;0.37;;;;;;;;;;20924520;28;20247;-80
2023/12/31 18:38:44;;;;;;;0.10;0.10;;;;;;;;;;20967788;28;20217;-81
2023/12/31 18:48:46;;;;;;;0.50;0.30;;;;;;;;;;20985818;28;20213;-80
2023/12/31 18:58:48;;;;;;;0.40;0.20;;;;;;;;;;20971701;28;20250;-80
2023/12/31 19:08:49;;;;;;;0.20;0.20;;;;;;;;;;20940130;28;20689;-80
2023/12/31 19:18:56;;;;;;;1.03;0.40;;;;;;;;;;20960331;28;20218;-80
2023/12/31 19:28:59;;;;;;;0.30;0.30;;;;;;;;;;20963231;28;20258;-80
2023/12/31 19:39:01;;;;;;;0.30;0.20;;;;;;;;;;20958195;28;20279;-80
2023/12/31 19:49:03;;;;;;;1.20;0.47;;;;;;;;;;20994547;28;20210;-80
2023/12/31 19:59:07;;;;;;;2.90;0.40;;;;;;;;;;20965201;28;20206;-80
2023/12/31 20:09:08;;;;;;;0.10;0.10;;;;;;;;;;20967400;28;20632;-82
2023/12/31 20:19:10;;;;;;;0.57;0.40;;;;;;;;;;20972003;28;20213;-81
2023/12/31 20:29:12;;;;;;;0.60;0.40;;;;;;;;;;20991250;28;20240;-80
2023/12/31 20:39:14;;;;;;;0.47;0.20;;;;;;;;;;21018573;28;20252;-79
2023/12/31 20:49:17;;;;;;;0.60;0.40;;;;;;;;;;20998964;28;20299;-80
2023/12/31 20:59:19;;;;;;;0.30;0.20;;;;;;;;;;20966332;28;20264;-80
2023/12/31 21:09:21;;;;;;;0.70;0.70;;;;;;;;;;20954717;28;20221;-80
2023/12/31 21:19:22;;;;;;;1.73;0.43;;;;;;;;;;20974630;28;20266;-80
2023/12/31 21:29:24;;;;;;;0.87;0.60;;;;;;;;;;21008135;28;20234;-80
2023/12/31 21:39:26;;;;;;;0.57;0.30;;;;;;;;;;20927929;28;20208;-81
2023/12/31 21:49:28;;;;;;;0.70;0.30;;;;;;;;;;20971467;28;20235;-80
2023/12/31 21:59:29;;;;;;;9.73;1.07;;;;;;;;;;20939577;28;20317;-80
2023/12/31 22:09:31;;;;;;;0.80;0.40;;;;;;;;;;20952509;28;20221;-80
2023/12/31 22:19:33;;;;;;;2.10;0.50;;;;;;;;;;20924104;28;20615;-80
2023/12/31 22:29:35;;;;;;;0.73;0.40;;;;;;;;;;20960255;28;20597;-79
2023/12/31 22:39:38;;;;;;;1.00;0.30;;;;;;;;;;20964047;28;20256;-81
2023/12/31 22:49:40;;;;;;;1.50;0.87;;;;;;;;;;20975302;28;20247;-79
2023/12/31 22:59:46;;;;;;;0.63;0.37;;;;;;;;;;20996871;28;20213;-80
2023/12/31 23:09:48;;;;;;;4.57;2.97;;;;;;;;;;20920920;28;20288;-79
2023/12/31 23:19:50;;;;;;;5.63;2.83;;;;;;;;;;20937248;28;20199;-81
2023/12/31 23:29:51;;;;;;;4.00;2.30;;;;;;;;;;20962320;28;20275;-81
2023/12/31 23:39:53;;;;;;;4.43;2.60;;;;;;;;;;20971519;28;20276;-80
2023/12/31 23:49:56;;;;;;;4.33;2.80;;;;;;;;;;20965852;28;20217;-83
2023/12/31 23:59:58;;;;;;;3.80;2.07;;;;;;;;;;20983766;28;20209;-81
